LEVD/VLL METAR and TAF weather

Enter ICAO airport designator
Station Type Date Time Source
LEVD METAR 2020/01/29 19:00 UTC NOAA

LEVD 291900Z 23009KT 9999 FEW012 SCT025 10/09 Q1023


Station Type Date Time Source
LEVD Decoded METAR 2020/01/29 19:00 UTC NOAA

Valladolid / Villanubla, Spain (LEVD) 41-43N 004-51W 846M
Jan 29, 2020 - 02:00 PM EST / 2020.01.29 1900 UTC
Wind: from the SW (230 degrees) at 10 MPH (9 KT):0
Visibility: greater than 7 mile(s):0
Sky conditions: partly cloudy
Temperature: 50 F (10 C)
Dew Point: 48 F (9 C)
Relative Humidity: 93%
Pressure (altimeter): 30.21 in. Hg (1023 hPa)
ob: LEVD 291900Z 23009KT 9999 FEW012 SCT025 10/09 Q1023
cycle: 19

Station Type Date Time Source
LEVD TAF 2020/01/29 18:27 UTC NOAA

TAF LEVD 291700Z 2918/3018 23013KT 9999 SCT010 BKN040 TX12/3015Z TN08/3006Z PROB30
TEMPO 3006/3018 3000 RA BR BKN007 PROB30
TEMPO 3010/3018 23015G25KT

Example: see airport list